NJAM2 KDCA-KADW
Flight info
| Callsign | NJAM2 |
|---|---|
| Flight time | 0h -8m |
| Altitude | 2000 |
| Route | VISUAL MARKERS |
| Aircraft | P28B/L-V/N |
Departure
| Time | 2026-04-26 12:21 |
|---|---|
| Airport | Ronald Reagan Washington National Airport (KDCA) |
Arrival
| Time | 2026-04-26 12:13 |
|---|---|
| Airport | Joint Base Andrews (KADW) |
| Time | Latitude | Longitude | Altitude | Speed | Heading |
|---|---|---|---|---|---|
| 2026-04-26 12:13 | 38.84603 | -77.04416 | 19 ft | 0 kts | 135° |
| 2026-04-26 12:16 | 38.84574 | -77.04351 | 19 ft | 11 kts | 106° |
| 2026-04-26 12:17 | 38.84574 | -77.04200 | 22 ft | 12 kts | 72° |
| 2026-04-26 12:17 | 38.84540 | -77.04140 | 23 ft | 9 kts | 167° |
| 2026-04-26 12:17 | 38.84476 | -77.04128 | 23 ft | 11 kts | 173° |
| 2026-04-26 12:17 | 38.84412 | -77.04114 | 22 ft | 3 kts | 147° |
| 2026-04-26 12:18 | 38.84395 | -77.04099 | 22 ft | 3 kts | 146° |
| 2026-04-26 12:18 | 38.84389 | -77.04094 | 22 ft | 0 kts | 150° |
| 2026-04-26 12:18 | 38.84380 | -77.04029 | 22 ft | 16 kts | 88° |
| 2026-04-26 12:18 | 38.84376 | -77.03859 | 22 ft | 20 kts | 124° |
| 2026-04-26 12:19 | 38.84255 | -77.03820 | 21 ft | 16 kts | 157° |
| 2026-04-26 12:19 | 38.84219 | -77.03776 | 19 ft | 0 kts | 119° |
| 2026-04-26 12:20 | 38.84204 | -77.03742 | 19 ft | 13 kts | 117° |
| 2026-04-26 12:20 | 38.84280 | -77.03688 | 17 ft | 32 kts | 355° |
| 2026-04-26 12:20 | 38.84682 | -77.03729 | 119 ft | 73 kts | 0° |
| 2026-04-26 12:21 | 38.85220 | -77.03754 | 406 ft | 80 kts | 0° |
| 2026-04-26 12:21 | 38.85758 | -77.03745 | 742 ft | 81 kts | 5° |
| 2026-04-26 12:21 | 38.86349 | -77.03648 | 1013 ft | 90 kts | 12° |
| 2026-04-26 12:21 | 38.86911 | -77.03276 | 1250 ft | 98 kts | 47° |
| 2026-04-26 12:22 | 38.87271 | -77.02494 | 1447 ft | 105 kts | 73° |
| 2026-04-26 12:22 | 38.87136 | -77.01544 | 1643 ft | 115 kts | 109° |
| 2026-04-26 12:22 | 38.86696 | -77.00740 | 2021 ft | 108 kts | 122° |
| 2026-04-26 12:22 | 38.86456 | -76.99938 | 2286 ft | 97 kts | 72° |
| 2026-04-26 12:23 | 38.86865 | -76.99215 | 2402 ft | 99 kts | 23° |
| 2026-04-26 12:23 | 38.87056 | -76.98665 | 2422 ft | 121 kts | 99° |
| 2026-04-26 12:23 | 38.87018 | -76.97491 | 2174 ft | 131 kts | 83° |
| 2026-04-26 12:23 | 38.87050 | -76.96369 | 2339 ft | 116 kts | 78° |
| 2026-04-26 12:24 | 38.87102 | -76.95216 | 1594 ft | 156 kts | 85° |
| 2026-04-26 12:24 | 38.86933 | -76.93845 | 1365 ft | 145 kts | 100° |
| 2026-04-26 12:24 | 38.86612 | -76.92689 | 1472 ft | 136 kts | 105° |
| 2026-04-26 12:25 | 38.85917 | -76.90288 | 1437 ft | 143 kts | 86° |
| 2026-04-26 12:25 | 38.85970 | -76.89026 | 1421 ft | 119 kts | 82° |
| 2026-04-26 12:25 | 38.85859 | -76.88205 | 1609 ft | 81 kts | 111° |
| 2026-04-26 12:25 | 38.85402 | -76.87800 | 1527 ft | 91 kts | 162° |
| 2026-04-26 12:26 | 38.84660 | -76.87894 | 1508 ft | 109 kts | 198° |
| 2026-04-26 12:26 | 38.83970 | -76.88164 | 1458 ft | 109 kts | 185° |
| 2026-04-26 12:26 | 38.83308 | -76.88325 | 1500 ft | 85 kts | 190° |
| 2026-04-26 12:26 | 38.82695 | -76.88544 | 1526 ft | 108 kts | 195° |
| 2026-04-26 12:27 | 38.81764 | -76.88727 | 1281 ft | 156 kts | 184° |
| 2026-04-26 12:27 | 38.80728 | -76.88992 | 1326 ft | 147 kts | 197° |
| 2026-04-26 12:27 | 38.79736 | -76.89171 | 1336 ft | 141 kts | 188° |
| 2026-04-26 12:27 | 38.78863 | -76.89381 | 1305 ft | 119 kts | 189° |
| 2026-04-26 12:28 | 38.78257 | -76.88916 | 1338 ft | 117 kts | 100° |
| 2026-04-26 12:28 | 38.78253 | -76.87916 | 1028 ft | 105 kts | 69° |
| 2026-04-26 12:28 | 38.78698 | -76.87281 | 702 ft | 92 kts | 29° |
| 2026-04-26 12:28 | 38.79290 | -76.87089 | 415 ft | 84 kts | 3° |
| 2026-04-26 12:29 | 38.79828 | -76.87082 | 284 ft | 69 kts | 1° |
| 2026-04-26 12:29 | 38.80229 | -76.87072 | 263 ft | 45 kts | 1° |
| 2026-04-26 12:29 | 38.80292 | -76.87123 | 266 ft | 9 kts | 125° |
| 2026-04-26 12:30 | 38.80440 | -76.87081 | 270 ft | 26 kts | 1° |
| 2026-04-26 12:30 | 38.80747 | -76.87076 | 277 ft | 53 kts | 1° |
| 2026-04-26 12:30 | 38.80937 | -76.87110 | 278 ft | 12 kts | 273° |
| 2026-04-26 12:31 | 38.80941 | -76.87161 | 277 ft | 0 kts | 270° |
| 2026-04-26 12:31 | 38.80943 | -76.87232 | 276 ft | 16 kts | 271° |
| 2026-04-26 12:31 | 38.80956 | -76.87433 | 273 ft | 27 kts | 306° |
| 2026-04-26 12:32 | 38.81000 | -76.87646 | 274 ft | 31 kts | 270° |
| 2026-04-26 12:32 | 38.80965 | -76.87869 | 276 ft | 18 kts | 211° |
| 2026-04-26 12:32 | 38.80944 | -76.87882 | 277 ft | 0 kts | 209° |